Flight Track Log - Related Links

Times and Time Zones

All times are in EDT time to prevent confusion due to time zone crossing. See the N769MR flight status page for this flight to view local times or setup timezone preferences in your user account.

Time Position Orientation Groundspeed Altitude Reporting Facility
EDT Latitude Longitude Course Direction KTS MPH feet Rate Location/Type
Sat 09:50:53 AM 42.6383 -84.0617 266° West 101 116 3,200  Level Cleveland Center
Sat 09:51:32 AM 42.6372 -84.0839 266° West 98 113 3,800 832 Climbing Cleveland Center
Sat 09:52:34 AM 42.6358 -84.1225 267° West 100 115 4,600 823 Climbing Cleveland Center
Sat 09:53:36 AM 42.6342 -84.1653 267° West 103 119 5,500 823 Climbing Cleveland Center
Sat 09:54:38 AM 42.6325 -84.2067 267° West 107 123 6,300 774 Climbing Cleveland Center
Sat 09:55:40 AM 42.6294 -84.2542 265° West 116 133 7,100 774 Climbing Cleveland Center
Sat 09:56:42 AM 42.6281 -84.2975 268° West 116 133 7,900 732 Climbing Cleveland Center
Sat 09:57:43 AM 42.6261 -84.3361 266° West 116 133 8,600 683 Climbing Cleveland Center
Sat 09:58:45 AM 42.6233 -84.3792 265° West 115 132 9,300 677 Climbing Cleveland Center
Sat 09:59:47 AM 42.6222 -84.4353 268° West 120 138 10,000 387 Climbing Cleveland Center
Sat 10:00:49 AM 42.6203 -84.4886 267° West 135 155 10,100 48 Climbing Cleveland Center
Sat 10:01:51 AM 42.6164 -84.5447 265° West 144 166 10,100  Level Cleveland Center
Sat 10:02:53 AM 42.6136 -84.5989 266° West 144 166 10,100  Level Cleveland Center
Sat 10:03:54 AM 42.6117 -84.6536 267° West 144 166 10,100 -49 Level Cleveland Center
Sat 10:04:56 AM 42.6083 -84.7114 266° West 144 166 10,000  Descending Cleveland Center
Sat 10:05:58 AM 42.6058 -84.7653 266° West 144 166 10,100 48 Climbing Cleveland Center
Sat 10:07:00 AM 42.6036 -84.8203 267° West 145 167 10,100  Level Cleveland Center
Sat 10:08:02 AM 42.6003 -84.8850 266° West 145 167 10,100  Level Cleveland Center
Sat 10:09:03 AM 42.5964 -84.9392 264° West 145 167 10,100 -49 Level Cleveland Center
Sat 10:10:05 AM 42.5942 -84.9939 267° West 145 167 10,000  Descending Cleveland Center
Sat 10:11:07 AM 42.5919 -85.0492 267° West 145 167 10,100 48 Climbing Cleveland Center
Sat 10:12:09 AM 42.5881 -85.1033 264° West 145 167 10,100  Level Cleveland Center
Sat 10:13:11 AM 42.5844 -85.1583 265° West 146 168 10,100 -49 Level Cleveland Center
Sat 10:14:12 AM 42.5831 -85.2119 268° West 145 167 10,000 -49 Descending Cleveland Center
Sat 10:15:14 AM 42.5789 -85.2794 265° West 147 169 10,000  Level Cleveland Center
Sat 10:16:16 AM 42.5758 -85.3336 266° West 147 169 10,000  Level Cleveland Center
Sat 10:17:18 AM 42.5719 -85.3889 265° West 147 169 10,000  Level Cleveland Center
Sat 10:18:20 AM 42.5694 -85.4439 266° West 147 169 10,000  Level Cleveland Center
Sat 10:19:22 AM 42.5656 -85.4994 265° West 147 169 10,000  Level Cleveland Center
Sat 10:20:24 AM 42.5625 -85.5556 266° West 148 170 10,000  Level Cleveland Center
Sat 10:21:26 AM 42.5592 -85.6214 266° West 148 170 10,000  Level Cleveland Center
Sat 10:22:28 AM 42.5556 -85.6761 265° West 148 170 10,000 48 Level Cleveland Center
Sat 10:23:30 AM 42.5525 -85.7308 266° West 147 169 10,100  Climbing Cleveland Center
Sat 10:24:50 AM 42.5656 -85.8056 283° West 146 168 10,000 -42 Descending Chicago Center
Sat 10:25:52 AM 42.5653 -85.8594 270° West 149 171 10,000  Level Chicago Center
Sat 10:26:54 AM 42.5647 -85.9133 269° West 146 168 10,000 48 Level Chicago Center
Sat 10:27:56 AM 42.5603 -85.9678 264° West 146 168 10,100 48 Climbing Chicago Center
Sat 10:28:58 AM 42.5561 -86.0222 264° West 146 168 10,100  Level Chicago Center
Sat 10:30:00 AM 42.5528 -86.0761 265° West 145 167 10,100  Level Chicago Center
Sat 10:31:02 AM 42.5489 -86.1303 264° West 144 166 10,100  Level Chicago Center
Sat 10:32:05 AM 42.5439 -86.1961 264° West 145 167 10,100  Level Chicago Center
Sat 10:33:07 AM 42.5400 -86.2506 264° West 145 167 10,100  Level Chicago Center
Sat 10:34:09 AM 42.5350 -86.3075 263° West 147 169 10,100  Level Chicago Center
Sat 10:35:11 AM 42.5364 -86.3622 272° West 147 169 10,100  Level Chicago Center
Sat 10:36:13 AM 42.5378 -86.4169 272° West 146 168 10,100  Level Chicago Center
Sat 10:37:15 AM 42.5397 -86.4725 273° West 147 169 10,100  Level Chicago Center
Sat 10:38:17 AM 42.5403 -86.5397 271° West 147 169 10,100  Level Chicago Center
Sat 10:39:19 AM 42.5414 -86.5947 272° West 147 169 10,100  Level Chicago Center
Sat 10:40:21 AM 42.5428 -86.6497 272° West 146 168 10,100  Level Chicago Center
Sat 10:41:23 AM 42.5436 -86.7069 271° West 148 170 10,100  Level Chicago Center
Sat 10:42:25 AM 42.5442 -86.7617 271° West 148 170 10,100  Level Chicago Center
Sat 10:43:27 AM 42.5461 -86.8169 273° West 148 170 10,100  Level Chicago Center
Sat 10:44:29 AM 42.5475 -86.8850 272° West 148 170 10,100  Level Chicago Center
Sat 10:45:31 AM 42.5475 -86.9394 270° West 149 171 10,100  Level Chicago Center
Sat 10:46:32 AM 42.5486 -86.9958 272° West 149 171 10,100  Level Chicago Center
Sat 10:47:34 AM 42.5486 -87.0497 270° West 145 167 10,100  Level Chicago Center
Sat 10:48:36 AM 42.5494 -87.1056 271° West 145 167 10,100  Level Chicago Center
Sat 10:49:38 AM 42.5497 -87.1619 270° West 147 169 10,100  Level Chicago Center
Sat 10:50:40 AM 42.5506 -87.2183 271° West 147 169 10,100  Level Chicago Center
Sat 10:51:42 AM 42.5508 -87.2856 270° West 149 171 10,100  Level Chicago Center
Sat 10:52:44 AM 42.5522 -87.3411 272° West 149 171 10,100  Level Chicago Center
Sat 10:53:45 AM 42.5531 -87.4039 271° West 149 171 10,100  Level Chicago Center
Sat 10:54:47 AM 42.5542 -87.4597 272° West 149 171 10,100 -194 Level Chicago Center
Sat 10:55:49 AM 42.5553 -87.5178 272° West 151 174 9,700 -387 Descending Chicago Center
Sat 10:56:51 AM 42.5561 -87.5817 271° West 168 193 9,300 -435 Descending Chicago Center
Sat 10:57:53 AM 42.5561 -87.6439 270° West 168 193 8,800 -537 Descending Chicago Center
Sat 10:58:54 AM 42.5567 -87.7056 271° West 166 191 8,200 -683 Descending Chicago Center
Sat 10:59:56 AM 42.5572 -87.7742 271° West 167 192 7,400 -629 Descending Chicago Center
Sat 11:00:58 AM 42.5572 -87.8361 270° West 166 191 6,900 -484 Descending Chicago Center
Sat 11:02:00 AM 42.5578 -87.8969 271° West 166 191 6,400 -435 Descending Chicago Center
Sat 11:03:02 AM 42.5578 -87.9656 270° West 154 177 6,000 -194 Descending Chicago Center
Sat 11:04:04 AM 42.5581 -88.0217 270° West 151 174 6,000  Level Chicago Center
Sat 11:05:06 AM 42.5583 -88.0744 270° West 146 168 6,000  Level Chicago Center
Sat 11:06:07 AM 42.5589 -88.1275 271° West 145 167 6,000  Level Chicago Center
Sat 11:07:09 AM 42.5589 -88.1794 270° West 142 163 6,000  Level Chicago Center
Sat 11:08:11 AM 42.5594 -88.2286 271° West 138 159 6,000  Level Chicago Center
Sat 11:09:13 AM 42.5583 -88.2803 268° West 135 155 6,000  Level Chicago Center
Sat 11:10:15 AM 42.5586 -88.3403 270° West 135 155 6,000  Level Chicago Center
Sat 11:11:17 AM 42.5589 -88.3925 270° West 135 155 6,000  Level Chicago Center
Sat 11:12:19 AM 42.5592 -88.4406 270° West 135 155 6,000  Level Chicago Center
Sat 11:13:21 AM 42.5583 -88.4883 269° West 134 154 6,000  Level Chicago Center
Sat 11:14:23 AM 42.5592 -88.5358 271° West 130 150 6,000 -244 Level Chicago Center
Sat 11:15:24 AM 42.5592 -88.5875 270° West 131 151 5,500 -439 Descending Chicago Center
Sat 11:16:26 AM 42.5592 -88.6411 270° West 137 158 5,100 -484 Descending Chicago Center
Sat 11:17:28 AM 42.5478 -88.6981 255° West 156 180 4,500 -581 Descending Chicago Center
Sat 11:18:30 AM 42.5086 -88.7206 203° Southwest 151 174 3,900 -532 Descending Chicago Center
Sat 11:19:32 AM 42.4719 -88.7461 207° Southwest 150 173 3,400 -435 Descending Chicago Center
Sat 11:20:34 AM 42.4350 -88.7683 204° Southwest 150 173 3,000 -194 Descending Chicago Center
Sat 11:21:36 AM 42.4011 -88.7894 205° Southwest 140 161 3,000  Level Chicago Center
Sat 11:22:38 AM 42.3644 -88.8125 205° Southwest 134 154 3,000  Level Chicago Center
Sat 11:24:00 AM 42.3167 -88.8333 216° Southwest  Level FlightAware

Login

Don't have an account? Register now (free) for customized features, flight alerts, and more!